Time;durP1;ratioP1;P1;durP2;ratioP2;P2;SDS_P1;SDS_P2;PMS_P1;PMS_P2;Temp;Humidity;BMP_temperature;BMP_pressure;BME280_temperature;BME280_humidity;BME280_pressure;Samples;Min_cycle;Max_cycle;Signal;HPM_P1;HPM_P2
2022/01/15 00:00:49;;;;;;;12.90;9.20;;;;;;;18.84;47.22;103199.31;5053164;28;20800;-61
2022/01/15 00:03:15;;;;;;;10.20;8.35;;;;;;;18.82;47.18;103197.69;5052550;28;20766;-61
2022/01/15 00:05:40;;;;;;;11.82;8.57;;;;;;;18.80;47.26;103204.78;5053178;28;20384;-61
2022/01/15 00:08:15;;;;;;;11.10;8.40;;;;;;;18.77;47.12;103191.72;5053072;28;20484;-61
2022/01/15 00:10:40;;;;;;;12.50;8.40;;;;;;;18.74;47.25;103195.38;5052157;28;20029;-61
2022/01/15 00:13:10;;;;;;;12.57;8.65;;;;;;;18.73;47.13;103201.59;5053157;28;20052;-61
2022/01/15 00:15:40;;;;;;;13.15;8.70;;;;;;;18.69;47.12;103205.28;5052212;28;20029;-61
2022/01/15 00:18:11;;;;;;;12.13;9.55;;;;;;;18.66;47.00;103203.66;5053284;28;20037;-61
2022/01/15 00:20:37;;;;;;;11.10;8.68;;;;;;;18.64;47.05;103202.00;5052897;28;20033;-61
2022/01/15 00:23:03;;;;;;;13.65;9.68;;;;;;;18.62;47.13;103195.94;5051914;28;20025;-61
2022/01/15 00:25:31;;;;;;;14.05;9.57;;;;;;;18.59;47.62;103196.09;5052909;28;20544;-61
2022/01/15 00:27:57;;;;;;;11.48;8.85;;;;;;;18.58;47.32;103189.09;5052838;28;20060;-61
2022/01/15 00:30:23;;;;;;;13.45;9.38;;;;;;;18.55;47.31;103190.09;5052116;28;20091;-61
2022/01/15 00:32:49;;;;;;;11.32;9.35;;;;;;;18.53;47.03;103183.16;5052411;28;20453;-61
2022/01/15 00:35:16;;;;;;;12.48;9.13;;;;;;;18.51;47.11;103180.59;5052727;28;20029;-61
2022/01/15 00:37:42;;;;;;;11.10;9.25;;;;;;;18.48;47.24;103178.97;5051733;28;20025;-61
2022/01/15 00:40:11;;;;;;;12.75;9.15;;;;;;;18.45;47.49;103179.13;5052850;28;20071;-61
2022/01/15 00:42:38;;;;;;;12.48;9.23;;;;;;;18.45;47.17;103170.31;5052459;28;20132;-61
2022/01/15 00:45:07;;;;;;;12.43;9.30;;;;;;;18.43;47.31;103169.53;5051948;28;20086;-61
2022/01/15 00:47:32;;;;;;;13.35;9.35;;;;;;;18.41;47.37;103171.41;5052558;28;20431;-62
2022/01/15 00:49:59;;;;;;;11.73;8.82;;;;;;;18.39;47.08;103163.53;5052828;28;20025;-61
2022/01/15 00:52:27;;;;;;;12.00;8.95;;;;;;;18.36;47.20;103166.31;5051959;28;20061;-61
2022/01/15 00:54:53;;;;;;;12.32;9.07;;;;;;;18.35;47.14;103164.59;5052331;28;20495;-61
2022/01/15 00:57:19;;;;;;;11.40;9.13;;;;;;;18.34;47.14;103159.38;5052464;28;20048;-61
2022/01/15 00:59:44;;;;;;;12.52;9.32;;;;;;;18.30;47.44;103154.25;5051659;28;20021;-61
2022/01/15 01:02:09;;;;;;;11.50;8.85;;;;;;;18.30;47.19;103153.41;5052507;28;20087;-61
2022/01/15 01:04:35;;;;;;;11.93;9.13;;;;;;;18.30;47.45;103150.75;5052475;28;20037;-61
2022/01/15 01:07:00;;;;;;;13.55;9.45;;;;;;;18.27;47.59;103154.38;5051897;28;20037;-61
2022/01/15 01:09:34;;;;;;;11.85;9.05;;;;;;;18.26;47.70;103155.34;5052686;28;20028;-61
2022/01/15 01:12:20;;;;;;;12.38;9.40;;;;;;;18.26;47.26;103151.81;5051833;28;20028;-61
2022/01/15 01:20:20;;;;;;;10.73;8.60;;;;;;;18.21;47.38;103141.47;5051866;28;20400;-61
2022/01/15 01:22:57;;;;;;;12.55;8.98;;;;;;;18.21;47.33;103140.63;5052368;28;20357;-61
2022/01/15 01:25:26;;;;;;;12.50;8.80;;;;;;;18.19;47.16;103134.56;5052627;28;20036;-61
2022/01/15 01:27:55;;;;;;;12.18;8.95;;;;;;;18.17;47.65;103133.78;5051368;28;20079;-61
2022/01/15 01:30:32;;;;;;;10.90;8.77;;;;;;;18.16;47.20;103138.19;5052441;28;20040;-61
2022/01/15 01:33:14;;;;;;;13.07;8.70;;;;;;;18.14;47.41;103129.50;5051579;28;20051;-61
2022/01/15 01:36:02;;;;;;;11.13;8.55;;;;;;;18.12;47.13;103134.84;5053270;28;20049;-61
2022/01/15 01:38:36;;;;;;;12.20;8.35;;;;;;;18.10;47.57;103134.06;5056112;28;20063;-61
2022/01/15 01:41:06;;;;;;;10.38;8.23;;;;;;;18.09;47.24;103123.56;5055211;28;20033;-61
2022/01/15 01:46:18;;;;;;;11.57;8.30;;;;;;;18.05;47.52;103125.47;5056087;28;20041;-61
2022/01/15 01:48:44;;;;;;;10.30;7.55;;;;;;;18.05;47.30;103124.63;5055017;28;20029;-61
2022/01/15 01:51:21;;;;;;;10.98;7.78;;;;;;;18.05;47.75;103124.63;5055840;28;20027;-60
2022/01/15 01:53:47;;;;;;;10.60;8.50;;;;;;;18.02;47.38;103112.41;5055399;28;20041;-61
2022/01/15 01:56:12;;;;;;;11.82;8.43;;;;;;;18.02;47.21;103116.84;5055215;28;20021;-61
2022/01/15 01:58:38;;;;;;;12.05;8.57;;;;;;;18.00;47.20;103114.28;5055484;28;20487;-60
2022/01/15 02:01:03;;;;;;;10.35;8.20;;;;;;;17.98;47.81;103118.78;5054998;28;20037;-60
2022/01/15 02:03:28;;;;;;;11.55;7.97;;;;;;;17.98;47.38;103115.28;5055754;28;20036;-61
2022/01/15 02:05:53;;;;;;;12.05;8.38;;;;;;;17.95;47.29;103117.13;5055273;28;20025;-61
2022/01/15 02:08:19;;;;;;;10.93;7.45;;;;;;;17.94;47.53;103112.78;5054843;28;20075;-60
2022/01/15 02:10:44;;;;;;;11.38;8.07;;;;;;;17.94;47.33;103112.78;5055368;28;20163;-61
2022/01/15 02:13:11;;;;;;;9.98;7.68;;;;;;;17.93;47.60;103099.66;5055448;28;20017;-61
2022/01/15 02:15:36;;;;;;;11.00;7.45;;;;;;;17.91;47.61;103107.66;5054393;28;20057;-61
2022/01/15 02:18:02;;;;;;;10.27;7.55;;;;;;;17.91;47.42;103102.38;5055294;28;20499;-61
2022/01/15 02:25:55;;;;;;;10.25;7.85;;;;;;;17.91;47.92;103110.28;5055178;28;20397;-61
2022/01/15 02:28:23;;;;;;;11.57;7.80;;;;;;;17.93;47.84;103097.03;5055147;28;20481;-61
2022/01/15 02:30:54;;;;;;;11.63;8.55;;;;;;;17.96;47.54;103094.25;5054015;28;20064;-61
2022/01/15 02:33:19;;;;;;;11.18;7.85;;;;;;;17.98;47.29;103088.91;5054881;28;20377;-61
2022/01/15 02:35:44;;;;;;;10.82;8.27;;;;;;;17.99;47.07;103087.97;5054418;28;20043;-61
2022/01/15 02:38:12;;;;;;;11.43;7.93;;;;;;;17.99;47.36;103080.03;5054284;28;20037;-62
2022/01/15 02:40:38;;;;;;;12.60;8.63;;;;;;;18.02;46.80;103070.19;5054511;28;20025;-61
2022/01/15 02:43:18;;;;;;;10.75;7.75;;;;;;;18.04;47.15;103059.56;5054978;28;20480;-61
2022/01/15 02:45:46;;;;;;;12.40;8.32;;;;;;;18.05;47.31;103058.66;5054333;28;20033;-61
2022/01/15 02:48:15;;;;;;;12.93;8.18;;;;;;;18.05;46.75;103058.66;5054882;28;20021;-60
2022/01/15 02:50:42;;;;;;;12.85;8.38;;;;;;;18.06;47.04;103050.66;5053835;28;20029;-60
2022/01/15 02:53:09;;;;;;;10.73;7.53;;;;;;;18.06;46.85;103048.03;5054760;28;20037;-61
2022/01/15 02:55:35;;;;;;;11.38;8.15;;;;;;;18.04;46.84;103039.34;5054549;28;20162;-61
2022/01/15 02:58:01;;;;;;;10.35;7.95;;;;;;;18.05;46.51;103034.91;5053701;28;20104;-61
2022/01/15 03:00:27;;;;;;;11.88;8.35;;;;;;;18.05;46.23;103037.53;5054590;28;20112;-62
2022/01/15 03:02:52;;;;;;;12.25;8.07;;;;;;;18.04;46.58;103039.34;5054367;28;20025;-61
2022/01/15 03:05:20;;;;;;;11.00;7.72;;;;;;;18.03;46.42;103032.34;5053955;28;20453;-61
2022/01/15 03:07:45;;;;;;;10.73;7.75;;;;;;;18.02;46.44;103027.97;5054310;28;20128;-61
2022/01/15 03:10:10;;;;;;;11.38;8.18;;;;;;;18.02;46.67;103030.63;5054395;28;20049;-61
2022/01/15 03:12:36;;;;;;;10.45;7.72;;;;;;;18.00;46.36;103029.84;5053272;28;20103;-62
2022/01/15 03:15:04;;;;;;;13.00;8.48;;;;;;;18.00;46.74;103024.56;5054183;28;20033;-62
2022/01/15 03:17:30;;;;;;;11.68;8.75;;;;;;;18.01;47.22;103026.28;5054012;28;20032;-62
2022/01/15 03:19:55;;;;;;;12.20;8.68;;;;;;;18.01;47.10;103025.41;5053620;28;20024;-62
2022/01/15 03:22:21;;;;;;;11.82;8.43;;;;;;;18.04;47.10;103025.28;5054225;28;20039;-62
2022/01/15 03:24:46;;;;;;;11.82;8.15;;;;;;;18.06;46.84;103026.06;5053856;28;20037;-62
2022/01/15 03:27:11;;;;;;;11.32;8.05;;;;;;;18.06;46.90;103026.94;5053345;28;20036;-62
2022/01/15 03:29:37;;;;;;;10.57;7.37;;;;;;;18.06;47.18;103024.28;5053491;28;20021;-61
2022/01/15 03:32:02;;;;;;;11.63;7.80;;;;;;;18.07;47.24;103023.38;5054060;28;20377;-61
2022/01/15 03:34:28;;;;;;;10.80;7.38;;;;;;;18.07;47.13;103018.09;5053300;28;20051;-61
2022/01/15 03:36:53;;;;;;;10.25;7.72;;;;;;;18.08;46.88;103017.16;5053380;28;20041;-62
2022/01/15 03:39:18;;;;;;;12.23;8.20;;;;;;;18.08;46.81;103017.16;5053874;28;20029;-62
2022/01/15 03:41:44;;;;;;;11.65;8.27;;;;;;;18.09;46.88;103018.03;5052852;28;20270;-62
2022/01/15 03:44:10;;;;;;;10.85;7.70;;;;;;;18.08;46.75;103011.88;5053608;28;20106;-62
2022/01/15 03:46:35;;;;;;;11.63;8.63;;;;;;;18.06;46.20;103011.09;5052817;28;20431;-62
2022/01/15 03:49:00;;;;;;;10.80;8.20;;;;;;;18.06;46.50;103007.59;5053733;28;20692;-62
2022/01/15 03:51:25;;;;;;;10.40;7.37;;;;;;;18.06;46.76;103008.44;5053598;28;20431;-62
2022/01/15 03:53:51;;;;;;;10.90;7.87;;;;;;;18.05;46.50;102995.34;5052524;28;20282;-62
2022/01/15 03:56:16;;;;;;;10.68;7.82;;;;;;;18.04;46.47;102993.59;5053282;28;20289;-62
2022/01/15 03:58:41;;;;;;;11.02;7.80;;;;;;;18.04;46.38;102988.34;5052157;28;20388;-62
2022/01/15 04:01:10;;;;;;;12.30;9.05;;;;;;;18.02;45.99;102991.03;5052814;28;20090;-61
2022/01/15 04:03:40;;;;;;;10.68;8.18;;;;;;;18.01;46.09;102994.63;5053211;28;20033;-61
2022/01/15 04:06:05;;;;;;;11.73;8.13;;;;;;;18.00;46.54;102995.53;5053221;28;20021;-61
2022/01/15 04:08:33;;;;;;;12.82;9.48;;;;;;;17.98;46.27;102994.78;5052306;28;20035;-62
2022/01/15 04:10:58;;;;;;;13.25;8.52;;;;;;;17.98;46.67;102992.13;5053267;28;20167;-61
2022/01/15 04:13:23;;;;;;;10.60;7.60;;;;;;;17.99;46.99;102990.34;5053158;28;20108;-62
2022/01/15 04:15:52;;;;;;;12.55;8.30;;;;;;;17.99;47.03;102985.94;5052357;28;20278;-62
2022/01/15 04:18:18;;;;;;;11.48;7.70;;;;;;;18.03;47.29;102986.66;5052930;28;20492;-62
2022/01/15 04:20:43;;;;;;;11.27;7.90;;;;;;;18.04;47.22;102983.06;5052879;28;20037;-62
2022/01/15 04:23:09;;;;;;;11.57;7.65;;;;;;;18.05;47.03;102976.88;5052300;28;20028;-61
2022/01/15 04:25:34;;;;;;;12.02;8.13;;;;;;;18.05;46.82;102968.94;5052689;28;20029;-62
2022/01/15 04:28:02;;;;;;;10.77;7.70;;;;;;;18.05;46.75;102967.16;5053013;28;20017;-62
2022/01/15 04:30:27;;;;;;;11.57;8.32;;;;;;;18.06;46.89;102970.66;5052539;28;20016;-62
2022/01/15 04:32:53;;;;;;;11.00;8.23;;;;;;;18.06;46.84;102968.88;5053276;28;20048;-61
2022/01/15 04:35:18;;;;;;;10.95;8.48;;;;;;;18.06;46.47;102970.66;5053308;28;20032;-62
2022/01/15 04:37:47;;;;;;;11.80;8.05;;;;;;;18.06;46.42;102963.59;5052031;28;20037;-62
2022/01/15 04:40:15;;;;;;;10.27;7.35;;;;;;;18.04;46.37;102959.31;5052839;28;20033;-60
2022/01/15 04:42:40;;;;;;;11.52;7.47;;;;;;;18.05;46.60;102959.25;5052745;28;20029;-60
2022/01/15 04:45:07;;;;;;;10.52;7.38;;;;;;;18.05;46.39;102953.97;5052752;28;20017;-61
2022/01/15 04:47:34;;;;;;;12.05;8.25;;;;;;;18.08;46.38;102958.25;5053413;28;20029;-61
2022/01/15 04:49:59;;;;;;;10.10;7.35;;;;;;;18.08;46.47;102955.59;5053242;28;20025;-61
2022/01/15 04:52:28;;;;;;;11.32;7.43;;;;;;;18.08;46.69;102951.19;5053642;28;20028;-61
2022/01/15 04:54:53;;;;;;;11.48;7.45;;;;;;;18.10;46.63;102949.34;5053088;28;20021;-61
2022/01/15 04:57:21;;;;;;;11.77;7.93;;;;;;;18.09;46.59;102944.97;5052483;28;20032;-61
2022/01/15 04:59:46;;;;;;;12.43;7.78;;;;;;;18.10;46.42;102941.44;5052526;28;20423;-60
2022/01/15 05:02:12;;;;;;;11.77;7.93;;;;;;;18.11;46.58;102942.28;5052776;28;20488;-61
2022/01/15 05:04:37;;;;;;;11.55;7.40;;;;;;;18.09;46.59;102934.44;5051601;28;20328;-61
2022/01/15 05:07:02;;;;;;;13.82;8.75;;;;;;;18.10;46.36;102937.91;5052529;28;20037;-60
2022/01/15 05:09:28;;;;;;;12.30;8.05;;;;;;;18.09;46.40;102934.44;5053505;28;20025;-61
2022/01/15 05:14:21;;;;;;;11.73;7.88;;;;;;;18.08;46.54;102937.97;5056734;28;20021;-61
2022/01/15 05:16:47;;;;;;;11.17;7.63;;;;;;;18.08;46.37;102931.84;5056287;28;20029;-61
2022/01/15 05:19:12;;;;;;;11.73;8.30;;;;;;;18.09;46.39;102923.03;5055527;28;20368;-61
2022/01/15 05:21:38;;;;;;;11.88;8.07;;;;;;;18.09;46.30;102931.78;5056075;28;20112;-61
2022/01/15 05:24:04;;;;;;;11.77;8.45;;;;;;;18.10;46.41;102930.00;5056276;28;20071;-61
2022/01/15 05:26:30;;;;;;;12.15;7.95;;;;;;;18.11;46.42;102922.00;5055109;28;20021;-61
2022/01/15 05:28:56;;;;;;;11.53;8.10;;;;;;;18.11;46.02;102915.88;5056294;28;20120;-61
2022/01/15 05:31:22;;;;;;;10.93;8.35;;;;;;;18.12;46.42;102907.06;5056364;28;20377;-61
2022/01/15 05:33:47;;;;;;;12.63;8.60;;;;;;;18.11;45.95;102908.81;5055200;28;20468;-61
2022/01/15 05:36:12;;;;;;;11.30;7.97;;;;;;;18.11;46.12;102906.16;5055897;28;20053;-61
2022/01/15 05:38:37;;;;;;;11.05;7.90;;;;;;;18.10;46.25;102898.34;5055448;28;20293;-61
2022/01/15 05:41:03;;;;;;;10.80;7.97;;;;;;;18.10;46.31;102893.06;5055445;28;20021;-61
2022/01/15 05:43:28;;;;;;;11.60;8.48;;;;;;;18.09;46.10;102892.22;5056116;28;20025;-61
2022/01/15 05:45:53;;;;;;;12.10;8.70;;;;;;;18.08;46.08;102887.84;5055653;28;20044;-61
2022/01/15 05:48:19;;;;;;;12.32;8.55;;;;;;;18.08;46.08;102885.22;5055326;28;20274;-61
2022/01/15 05:50:44;;;;;;;12.05;8.63;;;;;;;18.08;46.18;102887.84;5055564;28;20493;-61
2022/01/15 05:53:09;;;;;;;12.18;8.27;;;;;;;18.09;46.26;102884.28;5054798;28;20491;-61
2022/01/15 05:55:34;;;;;;;10.97;7.83;;;;;;;18.11;46.06;102884.22;5055640;28;20029;-61
2022/01/15 05:58:00;;;;;;;13.05;8.60;;;;;;;18.12;46.08;102878.03;5055674;28;20653;-61
2022/01/15 06:00:25;;;;;;;11.13;7.57;;;;;;;18.12;46.21;102878.88;5055052;28;20032;-61
2022/01/15 06:02:50;;;;;;;11.45;7.57;;;;;;;18.13;46.56;102880.59;5055546;28;20324;-61
2022/01/15 06:05:18;;;;;;;10.98;7.75;;;;;;;18.16;46.79;102876.06;5055819;28;20029;-61
2022/01/15 06:07:44;;;;;;;11.23;7.13;;;;;;;18.16;47.07;102860.25;5054403;28;20047;-61
2022/01/15 06:10:09;;;;;;;9.33;7.33;;;;;;;18.18;47.24;102869.78;5055681;28;20458;-61
2022/01/15 06:12:43;;;;;;;10.40;7.47;;;;;;;18.21;47.36;102860.88;5055232;28;20278;-61
2022/01/15 06:15:12;;;;;;;10.30;6.77;;;;;;;18.24;47.00;102860.72;5054570;28;20098;-61
2022/01/15 06:17:38;;;;;;;9.25;6.53;;;;;;;18.24;47.46;102864.19;5054921;28;20495;-61
2022/01/15 06:20:04;;;;;;;10.32;7.18;;;;;;;18.27;47.59;102858.75;5055313;28;20119;-60
2022/01/15 06:22:30;;;;;;;10.50;6.90;;;;;;;18.26;46.61;102857.06;5053221;28;20033;-60
2022/01/15 06:24:55;;;;;;;9.10;6.70;;;;;;;18.29;46.95;102851.66;5055311;28;20482;-60
2022/01/15 06:27:20;;;;;;;9.65;6.57;;;;;;;18.33;47.16;102854.97;5055195;28;20040;-60
2022/01/15 06:29:46;;;;;;;10.27;6.78;;;;;;;18.33;47.33;102852.34;5054163;28;20118;-60
2022/01/15 06:32:12;;;;;;;9.30;6.40;;;;;;;18.37;47.41;102855.66;5054909;28;20025;-60
2022/01/15 06:34:38;;;;;;;8.65;6.38;;;;;;;18.38;47.50;102852.09;5054987;28;20025;-60
2022/01/15 06:37:04;;;;;;;8.27;5.80;;;;;;;18.39;47.15;102852.03;5053760;28;20488;-60
2022/01/15 06:39:31;;;;;;;9.02;5.68;;;;;;;18.41;47.51;102852.78;5054768;28;20043;-60
2022/01/15 06:41:56;;;;;;;9.45;6.22;;;;;;;18.43;47.23;102852.72;5054946;28;20032;-60
2022/01/15 06:44:21;;;;;;;8.43;6.10;;;;;;;18.44;47.08;102852.63;5054171;28;20029;-60
2022/01/15 06:46:46;;;;;;;7.70;5.20;;;;;;;18.44;47.47;102857.91;5054433;28;20273;-60
2022/01/15 06:49:12;;;;;;;8.67;5.90;;;;;;;18.44;47.15;102844.72;5054727;28;20045;-60
2022/01/15 06:51:37;;;;;;;9.35;6.30;;;;;;;18.44;46.33;102849.16;5053760;28;20284;-61
2022/01/15 06:54:05;;;;;;;10.70;6.47;;;;;;;18.43;46.87;102845.66;5054565;28;20021;-61
2022/01/15 06:56:30;;;;;;;9.07;5.63;;;;;;;18.44;46.85;102850.00;5053622;28;20112;-61
2022/01/15 06:58:55;;;;;;;8.13;5.40;;;;;;;18.44;47.10;102847.38;5054664;28;20116;-61
2022/01/15 07:01:21;;;;;;;8.40;5.90;;;;;;;18.45;46.39;102848.22;5054466;28;20116;-59
2022/01/15 07:03:46;;;;;;;7.72;5.47;;;;;;;18.45;47.06;102851.72;5053496;28;20577;-61
2022/01/15 07:06:11;;;;;;;8.77;5.23;;;;;;;18.47;47.27;102851.66;5054533;28;20049;-62
2022/01/15 07:08:36;;;;;;;8.97;5.40;;;;;;;18.48;47.27;102848.94;5054217;28;20044;-62
2022/01/15 07:11:02;;;;;;;7.63;4.70;;;;;;;18.50;47.32;102851.50;5053762;28;20745;-62
2022/01/15 07:13:29;;;;;;;7.53;4.85;;;;;;;18.51;47.39;102850.53;5054245;28;20286;-63
2022/01/15 07:15:55;;;;;;;9.00;5.22;;;;;;;18.54;47.20;102854.81;5054175;28;20462;-63
2022/01/15 07:18:20;;;;;;;6.60;4.97;;;;;;;18.55;47.61;102852.09;5053397;28;20036;-62
2022/01/15 07:20:46;;;;;;;8.32;5.53;;;;;;;18.55;47.43;102852.09;5053901;28;20041;-63
2022/01/15 07:23:14;;;;;;;6.97;5.00;;;;;;;18.57;47.67;102846.75;5053865;28;20036;-63
2022/01/15 07:25:39;;;;;;;7.50;4.80;;;;;;;18.58;47.73;102853.72;5052775;28;20029;-62
2022/01/15 07:28:05;;;;;;;6.95;4.50;;;;;;;18.58;47.59;102851.94;5054071;28;20090;-62
2022/01/15 07:30:33;;;;;;;7.07;4.43;;;;;;;18.60;47.75;102849.22;5053782;28;20544;-61
2022/01/15 07:32:58;;;;;;;6.57;4.32;;;;;;;18.62;47.81;102850.00;5053173;28;20025;-62
2022/01/15 07:35:23;;;;;;;8.20;4.93;;;;;;;18.63;47.93;102843.78;5053602;28;20063;-61
2022/01/15 07:37:48;;;;;;;6.78;4.10;;;;;;;18.64;47.97;102840.19;5053606;28;20036;-62
2022/01/15 07:40:14;;;;;;;8.23;4.60;;;;;;;18.63;47.75;102835.88;5052945;28;20017;-61
2022/01/15 07:42:40;;;;;;;7.65;4.10;;;;;;;18.64;47.79;102830.50;5053397;28;20270;-62
2022/01/15 07:45:08;;;;;;;6.75;3.92;;;;;;;18.66;47.54;102838.34;5053683;28;20028;-62
2022/01/15 07:47:34;;;;;;;6.18;4.03;;;;;;;18.66;47.84;102841.84;5052956;28;20033;-61
2022/01/15 07:49:59;;;;;;;6.30;4.10;;;;;;;18.66;47.79;102848.91;5053435;28;20079;-61
2022/01/15 07:52:28;;;;;;;6.10;4.32;;;;;;;18.69;47.69;102859.28;5053746;28;20044;-64
2022/01/15 07:54:53;;;;;;;6.72;3.95;;;;;;;18.71;47.88;102864.50;5052579;28;20017;-60
2022/01/15 07:57:27;;;;;;;6.97;4.10;;;;;;;18.72;47.74;102853.00;5053403;28;20473;-60
2022/01/15 07:59:53;;;;;;;;;;;;;;;18.72;48.06;102858.28;5052805;28;20646;-59
2022/01/15 08:02:18;;;;;;;7.53;3.92;;;;;;;18.74;47.70;102864.34;5053191;28;19909;-59
2022/01/15 08:04:44;;;;;;;5.95;3.70;;;;;;;18.74;47.94;102857.28;5052810;28;20041;-58
2022/01/15 08:07:09;;;;;;;6.85;3.70;;;;;;;18.73;47.85;102855.56;5052660;28;20044;-60
2022/01/15 08:09:35;;;;;;;6.13;3.90;;;;;;;18.73;47.87;102852.94;5053032;28;20431;-60
2022/01/15 08:12:04;;;;;;;6.90;4.28;;;;;;;18.74;48.01;102857.28;5053218;28;20017;-61
2022/01/15 08:14:29;;;;;;;5.72;3.70;;;;;;;18.74;47.92;102845.84;5052197;28;20025;-60
2022/01/15 08:16:55;;;;;;;5.53;3.40;;;;;;;18.74;47.72;102848.47;5052909;28;20013;-61
2022/01/15 08:19:20;;;;;;;5.43;3.65;;;;;;;18.74;47.90;102846.72;5052959;28;20036;-61
2022/01/15 08:21:46;;;;;;;6.78;3.28;;;;;;;18.75;47.86;102837.00;5052094;28;20064;-62
2022/01/15 08:24:11;;;;;;;5.95;4.07;;;;;;;18.72;46.77;102840.63;5052876;28;20021;-62
2022/01/15 08:26:36;;;;;;;6.63;3.70;;;;;;;18.74;47.16;102843.19;5052752;28;20070;-60
2022/01/15 08:29:04;;;;;;;5.38;3.50;;;;;;;18.75;47.85;102840.47;5052227;28;20021;-61
2022/01/15 08:31:30;;;;;;;7.80;3.58;;;;;;;18.75;47.78;102837.00;5052477;28;20029;-62
2022/01/15 08:33:55;;;;;;;6.38;3.65;;;;;;;18.77;47.71;102836.00;5052822;28;20113;-60
2022/01/15 08:36:21;;;;;;;5.65;3.45;;;;;;;18.78;47.86;102829.75;5051929;28;20049;-60
2022/01/15 08:38:47;;;;;;;8.57;4.00;;;;;;;18.79;47.58;102834.13;5052386;28;20495;-60
2022/01/15 08:41:14;;;;;;;7.13;3.75;;;;;;;18.81;47.52;102831.41;5052881;28;20021;-60
2022/01/15 08:43:41;;;;;;;7.30;3.75;;;;;;;18.81;47.27;102834.03;5051400;28;20535;-61
2022/01/15 08:46:06;;;;;;;6.07;3.50;;;;;;;18.82;47.72;102841.88;5052548;28;20040;-61
2022/01/15 08:48:31;;;;;;;6.43;3.95;;;;;;;18.82;47.34;102838.41;5052623;28;20033;-60
2022/01/15 08:50:56;;;;;;;7.05;3.40;;;;;;;18.81;47.34;102837.53;5051967;28;20369;-60
2022/01/15 08:53:22;;;;;;;5.50;3.40;;;;;;;18.83;47.37;102837.44;5052708;28;20155;-61
2022/01/15 08:55:48;;;;;;;7.47;4.05;;;;;;;18.82;47.62;102831.31;5052390;28;20281;-60
2022/01/15 08:58:13;;;;;;;5.70;3.60;;;;;;;18.84;47.43;102831.25;5051813;28;20029;-61
2022/01/15 09:00:39;;;;;;;6.30;3.92;;;;;;;18.83;47.51;102833.03;5052165;28;20032;-61
2022/01/15 09:03:07;;;;;;;5.85;3.45;;;;;;;18.85;47.39;102839.13;5051709;28;20025;-61
2022/01/15 09:05:40;;;;;;;6.03;3.75;;;;;;;18.84;47.61;102834.75;5052258;28;20102;-61
2022/01/15 09:08:06;;;;;;;5.43;3.65;;;;;;;18.87;47.45;102832.88;5052442;28;20473;-61
2022/01/15 09:10:38;;;;;;;6.57;4.10;;;;;;;18.87;47.57;102828.47;5051381;28;20032;-61
2022/01/15 09:13:04;;;;;;;7.15;4.22;;;;;;;18.88;47.48;102830.16;5052509;28;20021;-61
2022/01/15 09:15:32;;;;;;;6.60;3.80;;;;;;;18.87;47.63;102828.47;5052330;28;20494;-61
2022/01/15 09:17:57;;;;;;;6.35;4.45;;;;;;;18.89;47.42;102826.59;5051539;28;20075;-61
2022/01/15 09:20:23;;;;;;;6.22;4.30;;;;;;;18.89;47.23;102823.09;5052446;28;20465;-61
2022/01/15 09:22:48;;;;;;;6.30;4.10;;;;;;;18.89;47.40;102823.94;5052157;28;20033;-61
2022/01/15 09:25:13;;;;;;;6.93;4.43;;;;;;;18.90;47.46;102822.16;5051466;28;20021;-61
2022/01/15 09:30:23;;;;;;;7.75;5.13;;;;;;;18.90;47.32;102809.81;5052373;28;20032;-62
2022/01/15 09:32:50;;;;;;;7.05;4.45;;;;;;;18.92;47.33;102809.72;5051505;28;20025;-64
2022/01/15 09:35:19;;;;;;;7.65;4.75;;;;;;;18.92;47.46;102815.84;5051903;28;20032;-61
2022/01/15 09:37:49;;;;;;;7.05;4.50;;;;;;;18.92;47.44;102805.28;5051793;28;20040;-61
2022/01/15 09:40:14;;;;;;;8.15;4.80;;;;;;;18.93;47.25;102814.94;5051494;28;20362;-61
2022/01/15 09:42:41;;;;;;;7.40;4.97;;;;;;;18.92;47.27;102800.00;5052122;28;20024;-61
2022/01/15 09:45:07;;;;;;;8.15;5.05;;;;;;;18.93;47.14;102790.28;5052465;28;20021;-63
2022/01/15 09:47:33;;;;;;;8.65;5.35;;;;;;;18.93;47.11;102804.34;5051261;28;20029;-61
2022/01/15 09:49:59;;;;;;;7.65;5.18;;;;;;;18.93;47.44;102799.06;5052118;28;20234;-61
2022/01/15 09:52:24;;;;;;;7.90;5.20;;;;;;;18.94;47.38;102802.56;5051408;28;20033;-61
2022/01/15 09:54:50;;;;;;;8.25;5.15;;;;;;;18.94;47.31;102810.50;5051716;28;20025;-61
2022/01/15 09:57:16;;;;;;;7.53;5.10;;;;;;;18.95;47.16;102806.91;5053726;28;20552;-60
2022/01/15 09:59:42;;;;;;;7.85;5.18;;;;;;;18.93;47.62;102806.13;5054812;28;20036;-60
2022/01/15 10:02:07;;;;;;;6.80;4.80;;;;;;;18.95;47.26;102805.13;5055870;28;20099;-61
2022/01/15 10:04:34;;;;;;;7.40;5.38;;;;;;;18.95;47.13;102806.91;5055216;28;20059;-61
2022/01/15 10:07:07;;;;;;;8.40;5.97;;;;;;;18.94;47.44;102806.03;5054802;28;20075;-61
2022/01/15 10:09:33;;;;;;;8.45;5.72;;;;;;;18.95;47.22;102807.75;5055066;28;20040;-60
2022/01/15 10:11:58;;;;;;;8.57;5.55;;;;;;;18.96;47.01;102809.47;5055638;28;20025;-60
2022/01/15 10:14:31;;;;;;;8.27;5.38;;;;;;;18.95;47.34;102806.91;5054846;28;20025;-60
2022/01/15 10:16:58;;;;;;;7.97;5.90;;;;;;;18.95;47.31;102807.75;5055425;28;20442;-61
2022/01/15 10:19:35;;;;;;;8.40;6.13;;;;;;;18.95;47.26;102810.41;5055318;28;20476;-60
2022/01/15 10:22:04;;;;;;;8.85;6.10;;;;;;;18.95;47.23;102810.41;5054468;28;20469;-59
2022/01/15 10:24:29;;;;;;;8.20;6.15;;;;;;;18.95;46.91;102806.91;5055068;28;20091;-61
2022/01/15 10:26:55;;;;;;;9.77;6.40;;;;;;;18.94;47.45;102805.19;5055374;28;20017;-60
2022/01/15 10:29:20;;;;;;;8.73;6.22;;;;;;;18.94;47.08;102800.75;5054592;28;20064;-60
2022/01/15 10:31:45;;;;;;;8.70;6.07;;;;;;;18.95;46.97;102799.00;5055016;28;20073;-60
2022/01/15 10:34:27;;;;;;;9.23;6.40;;;;;;;18.95;47.03;102799.00;5055031;28;20313;-60
2022/01/15 10:37:07;;;;;;;10.27;6.53;;;;;;;18.92;47.08;102791.22;5054344;28;20041;-60
2022/01/15 10:39:32;;;;;;;10.07;6.65;;;;;;;18.93;47.16;102793.78;5054831;28;20025;-60
2022/01/15 10:41:58;;;;;;;9.73;6.57;;;;;;;18.94;46.96;102789.34;5054282;28;20021;-60
2022/01/15 10:44:31;;;;;;;11.57;7.50;;;;;;;18.93;46.42;102785.88;5055200;28;20508;-62
2022/01/15 10:47:25;;;;;;;10.55;7.43;;;;;;;18.92;46.49;102796.50;5055056;28;20040;-61
2022/01/15 10:49:51;;;;;;;10.63;7.38;;;;;;;18.91;46.88;102790.34;5053043;28;20432;-62
2022/01/15 10:52:20;;;;;;;10.88;7.50;;;;;;;18.91;46.80;102795.63;5054641;28;20036;-61
2022/01/15 10:54:50;;;;;;;13.00;7.63;;;;;;;18.92;46.76;102789.44;5054431;28;20025;-62
2022/01/15 10:57:19;;;;;;;13.45;8.43;;;;;;;18.92;46.48;102778.88;5053725;28;20021;-61
2022/01/15 10:59:58;;;;;;;12.40;8.60;;;;;;;18.92;46.49;102778.03;5054359;28;20416;-61
2022/01/15 11:02:39;;;;;;;12.35;8.05;;;;;;;18.92;46.92;102772.75;5054789;28;20021;-61
2022/01/15 11:05:20;;;;;;;10.70;7.60;;;;;;;18.92;46.72;102773.59;5054580;28;20457;-61
2022/01/15 11:07:45;;;;;;;12.43;8.32;;;;;;;18.93;46.67;102769.13;5053812;28;20032;-61
2022/01/15 11:10:10;;;;;;;10.30;7.65;;;;;;;18.92;46.84;102767.44;5053897;28;20487;-61
2022/01/15 11:12:36;;;;;;;12.30;8.32;;;;;;;18.93;46.89;102766.50;5054160;28;20021;-61
2022/01/15 11:15:02;;;;;;;10.88;8.20;;;;;;;18.93;46.83;102759.44;5053991;28;20037;-61
2022/01/15 11:17:28;;;;;;;9.95;7.95;;;;;;;18.93;46.76;102763.84;5053882;28;20040;-61
2022/01/15 11:19:54;;;;;;;12.60;8.68;;;;;;;18.93;46.29;102755.94;5053916;28;20017;-60
2022/01/15 11:22:22;;;;;;;11.98;8.77;;;;;;;18.92;46.76;102762.16;5053879;28;20087;-67
2022/01/15 11:24:50;;;;;;;12.40;8.77;;;;;;;18.96;46.64;102763.69;5054058;28;20029;-68
2022/01/15 11:27:16;;;;;;;12.30;8.80;;;;;;;19.04;46.47;102761.47;5057411;28;20052;-69
2022/01/15 11:29:43;;;;;;;11.00;8.40;;;;;;;19.10;46.14;102761.13;5053983;28;20024;-66
2022/01/15 11:32:13;;;;;;;15.85;9.35;;;;;;;19.16;46.16;102754.69;5053423;28;20079;-68
2022/01/15 11:34:39;;;;;;;13.27;9.70;;;;;;;19.17;44.99;102754.59;5054033;28;20104;-69
2022/01/15 11:37:19;;;;;;;12.00;8.95;;;;;;;19.22;45.51;102746.41;5053805;28;20052;-69